sensor_id;sensor_type;location;lat;lon;timestamp;P1;durP1;ratioP1;P2;durP2;ratioP2
253;SDS011;590;48.772;8.846;2023-04-25T00:00:34;1.92;;;1.83;;
253;SDS011;590;48.772;8.846;2023-04-25T00:03:02;2.30;;;2.10;;
253;SDS011;590;48.772;8.846;2023-04-25T00:05:31;2.42;;;2.22;;
253;SDS011;590;48.772;8.846;2023-04-25T00:07:59;1.83;;;1.75;;
253;SDS011;590;48.772;8.846;2023-04-25T00:10:27;2.10;;;1.95;;
253;SDS011;590;48.772;8.846;2023-04-25T00:12:55;2.85;;;2.35;;
253;SDS011;590;48.772;8.846;2023-04-25T00:15:23;2.00;;;1.92;;
253;SDS011;590;48.772;8.846;2023-04-25T00:17:53;2.33;;;2.13;;
253;SDS011;590;48.772;8.846;2023-04-25T00:20:21;2.17;;;2.00;;
253;SDS011;590;48.772;8.846;2023-04-25T00:22:49;2.28;;;1.95;;
253;SDS011;590;48.772;8.846;2023-04-25T00:25:19;2.00;;;1.90;;
253;SDS011;590;48.772;8.846;2023-04-25T00:27:47;3.28;;;2.22;;
253;SDS011;590;48.772;8.846;2023-04-25T00:30:15;2.78;;;2.50;;
253;SDS011;590;48.772;8.846;2023-04-25T00:32:42;2.53;;;2.35;;
253;SDS011;590;48.772;8.846;2023-04-25T00:35:12;2.70;;;2.50;;
253;SDS011;590;48.772;8.846;2023-04-25T00:37:40;2.85;;;2.65;;
253;SDS011;590;48.772;8.846;2023-04-25T00:40:08;2.80;;;2.60;;
253;SDS011;590;48.772;8.846;2023-04-25T00:42:37;2.58;;;2.38;;
253;SDS011;590;48.772;8.846;2023-04-25T00:45:05;3.75;;;2.30;;
253;SDS011;590;48.772;8.846;2023-04-25T00:47:36;3.08;;;2.88;;
253;SDS011;590;48.772;8.846;2023-04-25T00:50:05;2.25;;;2.05;;
253;SDS011;590;48.772;8.846;2023-04-25T00:52:35;2.40;;;2.20;;
253;SDS011;590;48.772;8.846;2023-04-25T00:55:05;2.47;;;2.28;;
253;SDS011;590;48.772;8.846;2023-04-25T00:57:33;4.10;;;2.67;;
253;SDS011;590;48.772;8.846;2023-04-25T01:00:02;3.42;;;2.78;;
253;SDS011;590;48.772;8.846;2023-04-25T01:02:33;2.88;;;2.70;;
253;SDS011;590;48.772;8.846;2023-04-25T01:05:02;2.63;;;2.43;;
253;SDS011;590;48.772;8.846;2023-04-25T01:07:30;3.13;;;2.92;;
253;SDS011;590;48.772;8.846;2023-04-25T01:10:00;3.50;;;2.65;;
253;SDS011;590;48.772;8.846;2023-04-25T01:12:28;2.90;;;2.70;;
253;SDS011;590;48.772;8.846;2023-04-25T01:14:57;3.15;;;2.80;;
253;SDS011;590;48.772;8.846;2023-04-25T01:17:25;2.97;;;2.78;;
253;SDS011;590;48.772;8.846;2023-04-25T01:19:53;3.20;;;3.00;;
253;SDS011;590;48.772;8.846;2023-04-25T01:22:23;2.85;;;2.60;;
253;SDS011;590;48.772;8.846;2023-04-25T01:24:51;2.95;;;2.78;;
253;SDS011;590;48.772;8.846;2023-04-25T01:27:19;2.85;;;2.45;;
253;SDS011;590;48.772;8.846;2023-04-25T01:29:49;2.87;;;2.67;;
253;SDS011;590;48.772;8.846;2023-04-25T01:32:17;2.90;;;2.70;;
253;SDS011;590;48.772;8.846;2023-04-25T01:34:46;1.90;;;1.80;;
253;SDS011;590;48.772;8.846;2023-04-25T01:37:14;2.85;;;2.65;;
253;SDS011;590;48.772;8.846;2023-04-25T01:39:44;2.40;;;2.20;;
253;SDS011;590;48.772;8.846;2023-04-25T01:42:12;2.60;;;2.40;;
253;SDS011;590;48.772;8.846;2023-04-25T01:44:40;2.78;;;2.60;;
253;SDS011;590;48.772;8.846;2023-04-25T01:47:08;2.60;;;2.40;;
253;SDS011;590;48.772;8.846;2023-04-25T01:49:36;3.08;;;2.88;;
253;SDS011;590;48.772;8.846;2023-04-25T01:52:04;2.80;;;2.42;;
253;SDS011;590;48.772;8.846;2023-04-25T01:54:32;2.85;;;2.50;;
253;SDS011;590;48.772;8.846;2023-04-25T01:57:02;2.58;;;2.38;;
253;SDS011;590;48.772;8.846;2023-04-25T01:59:29;2.80;;;2.60;;
253;SDS011;590;48.772;8.846;2023-04-25T02:01:57;4.00;;;2.38;;
253;SDS011;590;48.772;8.846;2023-04-25T02:04:25;2.75;;;2.55;;
253;SDS011;590;48.772;8.846;2023-04-25T02:06:54;2.97;;;2.78;;
253;SDS011;590;48.772;8.846;2023-04-25T02:09:22;2.58;;;2.38;;
253;SDS011;590;48.772;8.846;2023-04-25T02:11:50;2.67;;;2.47;;
253;SDS011;590;48.772;8.846;2023-04-25T02:14:19;2.75;;;2.55;;
253;SDS011;590;48.772;8.846;2023-04-25T02:16:47;5.50;;;2.92;;
253;SDS011;590;48.772;8.846;2023-04-25T02:19:15;2.95;;;2.75;;
253;SDS011;590;48.772;8.846;2023-04-25T02:21:43;3.20;;;3.00;;
253;SDS011;590;48.772;8.846;2023-04-25T02:24:11;3.20;;;3.00;;
253;SDS011;590;48.772;8.846;2023-04-25T02:26:39;5.10;;;3.42;;
253;SDS011;590;48.772;8.846;2023-04-25T02:29:07;3.17;;;2.97;;
253;SDS011;590;48.772;8.846;2023-04-25T02:31:37;2.95;;;2.80;;
253;SDS011;590;48.772;8.846;2023-04-25T02:34:05;2.83;;;2.63;;
253;SDS011;590;48.772;8.846;2023-04-25T02:36:33;3.08;;;2.88;;
253;SDS011;590;48.772;8.846;2023-04-25T02:39:01;3.30;;;3.10;;
253;SDS011;590;48.772;8.846;2023-04-25T02:41:30;3.20;;;3.00;;
253;SDS011;590;48.772;8.846;2023-04-25T02:43:58;2.90;;;2.70;;
253;SDS011;590;48.772;8.846;2023-04-25T02:46:26;3.42;;;3.22;;
253;SDS011;590;48.772;8.846;2023-04-25T02:49:06;3.13;;;2.97;;
253;SDS011;590;48.772;8.846;2023-04-25T02:51:34;3.05;;;2.85;;
253;SDS011;590;48.772;8.846;2023-04-25T02:54:02;3.38;;;3.17;;
253;SDS011;590;48.772;8.846;2023-04-25T02:56:30;3.35;;;3.15;;
253;SDS011;590;48.772;8.846;2023-04-25T02:58:58;2.90;;;2.70;;
253;SDS011;590;48.772;8.846;2023-04-25T03:01:26;4.15;;;3.92;;
253;SDS011;590;48.772;8.846;2023-04-25T03:03:54;3.00;;;2.80;;
253;SDS011;590;48.772;8.846;2023-04-25T03:06:23;3.55;;;3.35;;
253;SDS011;590;48.772;8.846;2023-04-25T03:08:51;2.78;;;2.58;;
253;SDS011;590;48.772;8.846;2023-04-25T03:11:19;3.50;;;2.80;;
253;SDS011;590;48.772;8.846;2023-04-25T03:13:47;3.65;;;3.45;;
253;SDS011;590;48.772;8.846;2023-04-25T03:16:15;3.00;;;2.80;;
253;SDS011;590;48.772;8.846;2023-04-25T03:18:44;3.10;;;2.90;;
253;SDS011;590;48.772;8.846;2023-04-25T03:21:12;4.07;;;3.88;;
253;SDS011;590;48.772;8.846;2023-04-25T03:23:41;3.85;;;3.65;;
253;SDS011;590;48.772;8.846;2023-04-25T03:26:09;7.35;;;6.95;;
253;SDS011;590;48.772;8.846;2023-04-25T03:28:37;3.72;;;3.53;;
253;SDS011;590;48.772;8.846;2023-04-25T03:31:05;3.88;;;3.67;;
253;SDS011;590;48.772;8.846;2023-04-25T03:33:33;3.13;;;2.92;;
253;SDS011;590;48.772;8.846;2023-04-25T03:36:02;3.33;;;3.15;;
253;SDS011;590;48.772;8.846;2023-04-25T03:38:30;3.75;;;3.30;;
253;SDS011;590;48.772;8.846;2023-04-25T03:40:59;3.45;;;3.25;;
253;SDS011;590;48.772;8.846;2023-04-25T03:43:28;3.50;;;3.30;;
253;SDS011;590;48.772;8.846;2023-04-25T03:45:56;3.55;;;3.38;;
253;SDS011;590;48.772;8.846;2023-04-25T03:48:24;3.40;;;3.20;;
253;SDS011;590;48.772;8.846;2023-04-25T03:50:52;3.30;;;3.10;;
253;SDS011;590;48.772;8.846;2023-04-25T03:53:21;3.80;;;3.60;;
253;SDS011;590;48.772;8.846;2023-04-25T03:55:49;5.95;;;4.75;;
253;SDS011;590;48.772;8.846;2023-04-25T03:58:18;3.55;;;3.17;;
253;SDS011;590;48.772;8.846;2023-04-25T04:00:46;6.05;;;4.35;;
253;SDS011;590;48.772;8.846;2023-04-25T04:03:14;3.83;;;3.63;;
253;SDS011;590;48.772;8.846;2023-04-25T04:05:43;3.33;;;3.10;;
253;SDS011;590;48.772;8.846;2023-04-25T04:08:11;3.60;;;3.40;;
253;SDS011;590;48.772;8.846;2023-04-25T04:10:39;3.88;;;3.67;;
253;SDS011;590;48.772;8.846;2023-04-25T04:13:07;2.95;;;2.75;;
253;SDS011;590;48.772;8.846;2023-04-25T04:15:36;2.97;;;2.80;;
253;SDS011;590;48.772;8.846;2023-04-25T04:18:04;3.70;;;2.55;;
253;SDS011;590;48.772;8.846;2023-04-25T04:20:32;3.10;;;2.90;;
253;SDS011;590;48.772;8.846;2023-04-25T04:23:01;3.05;;;2.85;;
253;SDS011;590;48.772;8.846;2023-04-25T04:25:29;3.88;;;3.60;;
253;SDS011;590;48.772;8.846;2023-04-25T04:28:14;3.70;;;3.50;;
253;SDS011;590;48.772;8.846;2023-04-25T04:30:43;2.85;;;2.65;;
253;SDS011;590;48.772;8.846;2023-04-25T04:33:13;3.78;;;3.58;;
253;SDS011;590;48.772;8.846;2023-04-25T04:35:41;4.55;;;4.25;;
253;SDS011;590;48.772;8.846;2023-04-25T04:38:09;3.85;;;3.65;;
253;SDS011;590;48.772;8.846;2023-04-25T04:40:38;4.45;;;4.15;;
253;SDS011;590;48.772;8.846;2023-04-25T04:43:06;8.98;;;8.48;;
253;SDS011;590;48.772;8.846;2023-04-25T04:45:35;14.25;;;13.55;;
253;SDS011;590;48.772;8.846;2023-04-25T04:48:06;15.18;;;14.38;;
253;SDS011;590;48.772;8.846;2023-04-25T04:50:35;13.40;;;12.70;;
253;SDS011;590;48.772;8.846;2023-04-25T04:53:03;12.73;;;12.02;;
253;SDS011;590;48.772;8.846;2023-04-25T04:55:31;11.32;;;10.73;;
253;SDS011;590;48.772;8.846;2023-04-25T04:57:59;11.15;;;10.55;;
253;SDS011;590;48.772;8.846;2023-04-25T05:00:27;11.55;;;10.95;;
253;SDS011;590;48.772;8.846;2023-04-25T05:02:56;10.25;;;9.75;;
253;SDS011;590;48.772;8.846;2023-04-25T05:05:25;9.48;;;8.98;;
253;SDS011;590;48.772;8.846;2023-04-25T05:07:53;8.82;;;8.32;;
253;SDS011;590;48.772;8.846;2023-04-25T05:10:21;7.25;;;6.85;;
253;SDS011;590;48.772;8.846;2023-04-25T05:12:49;5.70;;;5.30;;
253;SDS011;590;48.772;8.846;2023-04-25T05:15:17;5.63;;;5.32;;
253;SDS011;590;48.772;8.846;2023-04-25T05:17:45;5.70;;;5.40;;
253;SDS011;590;48.772;8.846;2023-04-25T05:20:13;5.05;;;4.75;;
253;SDS011;590;48.772;8.846;2023-04-25T05:22:42;4.53;;;4.22;;
253;SDS011;590;48.772;8.846;2023-04-25T05:25:11;4.28;;;4.00;;
253;SDS011;590;48.772;8.846;2023-04-25T05:27:38;6.55;;;4.35;;
253;SDS011;590;48.772;8.846;2023-04-25T05:30:07;3.85;;;3.65;;
253;SDS011;590;48.772;8.846;2023-04-25T05:32:36;5.32;;;5.03;;
253;SDS011;590;48.772;8.846;2023-04-25T05:35:04;4.82;;;4.53;;
253;SDS011;590;48.772;8.846;2023-04-25T05:37:33;4.70;;;4.40;;
253;SDS011;590;48.772;8.846;2023-04-25T05:40:03;5.30;;;4.78;;
253;SDS011;590;48.772;8.846;2023-04-25T05:42:33;4.85;;;4.55;;
253;SDS011;590;48.772;8.846;2023-04-25T05:45:01;4.30;;;4.00;;
253;SDS011;590;48.772;8.846;2023-04-25T05:47:28;3.78;;;3.60;;
253;SDS011;590;48.772;8.846;2023-04-25T05:49:56;4.40;;;4.05;;
253;SDS011;590;48.772;8.846;2023-04-25T05:52:24;3.95;;;3.75;;
253;SDS011;590;48.772;8.846;2023-04-25T05:54:52;3.72;;;3.53;;
253;SDS011;590;48.772;8.846;2023-04-25T05:57:22;4.50;;;4.20;;
253;SDS011;590;48.772;8.846;2023-04-25T05:59:51;5.63;;;5.32;;
253;SDS011;590;48.772;8.846;2023-04-25T06:02:20;5.47;;;5.18;;
253;SDS011;590;48.772;8.846;2023-04-25T06:04:49;5.90;;;5.60;;
253;SDS011;590;48.772;8.846;2023-04-25T06:07:20;5.95;;;5.65;;
253;SDS011;590;48.772;8.846;2023-04-25T06:09:48;5.43;;;5.13;;
253;SDS011;590;48.772;8.846;2023-04-25T06:12:16;5.35;;;5.05;;
253;SDS011;590;48.772;8.846;2023-04-25T06:14:45;5.47;;;5.18;;
253;SDS011;590;48.772;8.846;2023-04-25T06:17:13;5.05;;;4.60;;
253;SDS011;590;48.772;8.846;2023-04-25T06:19:41;4.85;;;4.55;;
253;SDS011;590;48.772;8.846;2023-04-25T06:22:09;5.82;;;5.53;;
253;SDS011;590;48.772;8.846;2023-04-25T06:24:37;5.07;;;4.78;;
253;SDS011;590;48.772;8.846;2023-04-25T06:27:05;5.60;;;5.30;;
253;SDS011;590;48.772;8.846;2023-04-25T06:29:33;4.97;;;4.70;;
253;SDS011;590;48.772;8.846;2023-04-25T06:32:03;4.15;;;3.92;;
253;SDS011;590;48.772;8.846;2023-04-25T06:34:31;4.13;;;3.88;;
253;SDS011;590;48.772;8.846;2023-04-25T06:36:59;4.82;;;4.53;;
253;SDS011;590;48.772;8.846;2023-04-25T06:39:27;3.78;;;3.50;;
253;SDS011;590;48.772;8.846;2023-04-25T06:41:55;3.72;;;3.50;;
253;SDS011;590;48.772;8.846;2023-04-25T06:44:23;4.57;;;4.27;;
253;SDS011;590;48.772;8.846;2023-04-25T06:46:52;3.90;;;3.70;;
253;SDS011;590;48.772;8.846;2023-04-25T06:49:21;4.30;;;3.95;;
253;SDS011;590;48.772;8.846;2023-04-25T06:51:49;3.50;;;3.30;;
253;SDS011;590;48.772;8.846;2023-04-25T06:54:17;5.35;;;4.32;;
253;SDS011;590;48.772;8.846;2023-04-25T06:56:45;3.60;;;3.40;;
253;SDS011;590;48.772;8.846;2023-04-25T06:59:13;3.10;;;2.90;;
253;SDS011;590;48.772;8.846;2023-04-25T07:01:41;4.10;;;3.90;;
253;SDS011;590;48.772;8.846;2023-04-25T07:04:09;3.60;;;3.40;;
253;SDS011;590;48.772;8.846;2023-04-25T07:06:39;3.65;;;3.45;;
253;SDS011;590;48.772;8.846;2023-04-25T07:09:08;2.97;;;2.78;;
253;SDS011;590;48.772;8.846;2023-04-25T07:11:36;3.17;;;2.97;;
253;SDS011;590;48.772;8.846;2023-04-25T07:14:04;3.20;;;3.00;;
253;SDS011;590;48.772;8.846;2023-04-25T07:16:33;5.20;;;3.70;;
253;SDS011;590;48.772;8.846;2023-04-25T07:19:01;3.43;;;3.23;;
253;SDS011;590;48.772;8.846;2023-04-25T07:21:28;3.30;;;3.10;;
253;SDS011;590;48.772;8.846;2023-04-25T07:23:59;3.65;;;3.45;;
253;SDS011;590;48.772;8.846;2023-04-25T07:26:27;3.10;;;2.90;;
253;SDS011;590;48.772;8.846;2023-04-25T07:28:55;3.63;;;3.42;;
253;SDS011;590;48.772;8.846;2023-04-25T07:31:23;3.30;;;3.10;;
253;SDS011;590;48.772;8.846;2023-04-25T07:33:51;3.80;;;3.60;;
253;SDS011;590;48.772;8.846;2023-04-25T07:36:19;5.50;;;4.65;;
253;SDS011;590;48.772;8.846;2023-04-25T07:38:47;4.30;;;4.03;;
253;SDS011;590;48.772;8.846;2023-04-25T07:41:17;3.60;;;3.40;;
253;SDS011;590;48.772;8.846;2023-04-25T07:43:45;3.50;;;3.30;;
253;SDS011;590;48.772;8.846;2023-04-25T07:46:13;3.17;;;2.97;;
253;SDS011;590;48.772;8.846;2023-04-25T07:48:41;4.70;;;4.40;;
253;SDS011;590;48.772;8.846;2023-04-25T07:51:09;4.60;;;4.30;;
253;SDS011;590;48.772;8.846;2023-04-25T07:53:37;3.85;;;3.65;;
253;SDS011;590;48.772;8.846;2023-04-25T07:56:06;4.60;;;4.30;;
253;SDS011;590;48.772;8.846;2023-04-25T07:58:36;4.27;;;4.00;;
253;SDS011;590;48.772;8.846;2023-04-25T08:01:04;3.90;;;3.70;;
253;SDS011;590;48.772;8.846;2023-04-25T08:03:32;4.37;;;4.07;;
253;SDS011;590;48.772;8.846;2023-04-25T08:06:00;4.72;;;4.43;;
253;SDS011;590;48.772;8.846;2023-04-25T08:08:33;5.28;;;4.97;;
253;SDS011;590;48.772;8.846;2023-04-25T08:11:01;3.70;;;3.50;;
253;SDS011;590;48.772;8.846;2023-04-25T08:13:29;3.87;;;3.67;;
253;SDS011;590;48.772;8.846;2023-04-25T08:15:58;6.00;;;5.70;;
253;SDS011;590;48.772;8.846;2023-04-25T08:18:26;4.60;;;4.30;;
253;SDS011;590;48.772;8.846;2023-04-25T08:20:54;5.00;;;4.70;;
253;SDS011;590;48.772;8.846;2023-04-25T08:23:22;4.50;;;4.20;;
253;SDS011;590;48.772;8.846;2023-04-25T08:25:50;5.70;;;5.40;;
253;SDS011;590;48.772;8.846;2023-04-25T08:28:18;4.32;;;4.03;;
253;SDS011;590;48.772;8.846;2023-04-25T08:30:46;4.10;;;3.90;;
253;SDS011;590;48.772;8.846;2023-04-25T08:33:16;4.13;;;3.90;;
253;SDS011;590;48.772;8.846;2023-04-25T08:35:44;3.30;;;3.10;;
253;SDS011;590;48.772;8.846;2023-04-25T08:38:12;3.40;;;3.20;;
253;SDS011;590;48.772;8.846;2023-04-25T08:40:40;3.50;;;3.30;;
253;SDS011;590;48.772;8.846;2023-04-25T08:43:09;2.80;;;2.60;;
253;SDS011;590;48.772;8.846;2023-04-25T08:45:40;3.70;;;3.50;;
253;SDS011;590;48.772;8.846;2023-04-25T08:48:10;3.13;;;2.92;;
253;SDS011;590;48.772;8.846;2023-04-25T08:50:40;3.53;;;3.33;;
253;SDS011;590;48.772;8.846;2023-04-25T08:53:12;4.47;;;4.17;;
253;SDS011;590;48.772;8.846;2023-04-25T08:55:45;4.65;;;4.35;;
253;SDS011;590;48.772;8.846;2023-04-25T08:58:14;4.00;;;3.85;;
253;SDS011;590;48.772;8.846;2023-04-25T09:00:43;3.30;;;3.10;;
253;SDS011;590;48.772;8.846;2023-04-25T09:03:13;1.92;;;1.83;;
253;SDS011;590;48.772;8.846;2023-04-25T09:05:43;1.40;;;1.33;;
253;SDS011;590;48.772;8.846;2023-04-25T09:08:12;0.90;;;0.90;;
253;SDS011;590;48.772;8.846;2023-04-25T09:10:40;1.30;;;1.20;;
253;SDS011;590;48.772;8.846;2023-04-25T09:13:09;1.15;;;1.05;;
253;SDS011;590;48.772;8.846;2023-04-25T09:15:46;0.65;;;0.57;;
253;SDS011;590;48.772;8.846;2023-04-25T09:18:21;0.75;;;0.73;;
253;SDS011;590;48.772;8.846;2023-04-25T09:20:57;0.60;;;0.60;;
253;SDS011;590;48.772;8.846;2023-04-25T09:23:39;0.90;;;0.88;;
253;SDS011;590;48.772;8.846;2023-04-25T09:26:08;1.10;;;1.00;;
253;SDS011;590;48.772;8.846;2023-04-25T09:28:36;0.80;;;0.70;;
253;SDS011;590;48.772;8.846;2023-04-25T09:31:04;1.17;;;0.80;;
253;SDS011;590;48.772;8.846;2023-04-25T09:33:33;1.87;;;0.60;;
253;SDS011;590;48.772;8.846;2023-04-25T09:36:04;0.75;;;0.73;;
253;SDS011;590;48.772;8.846;2023-04-25T09:38:39;1.45;;;0.90;;
253;SDS011;590;48.772;8.846;2023-04-25T09:41:08;0.97;;;0.87;;
253;SDS011;590;48.772;8.846;2023-04-25T09:43:37;0.70;;;0.67;;
253;SDS011;590;48.772;8.846;2023-04-25T09:46:07;0.70;;;0.60;;
253;SDS011;590;48.772;8.846;2023-04-25T09:48:37;2.30;;;0.50;;
253;SDS011;590;48.772;8.846;2023-04-25T09:51:10;0.63;;;0.50;;
253;SDS011;590;48.772;8.846;2023-04-25T09:53:40;0.60;;;0.50;;
253;SDS011;590;48.772;8.846;2023-04-25T09:56:09;0.60;;;0.50;;
253;SDS011;590;48.772;8.846;2023-04-25T09:58:39;2.78;;;0.63;;
253;SDS011;590;48.772;8.846;2023-04-25T10:01:08;0.73;;;0.63;;
253;SDS011;590;48.772;8.846;2023-04-25T10:03:37;0.60;;;0.60;;
253;SDS011;590;48.772;8.846;2023-04-25T10:06:11;0.70;;;0.70;;
253;SDS011;590;48.772;8.846;2023-04-25T10:08:41;1.07;;;1.00;;
253;SDS011;590;48.772;8.846;2023-04-25T10:11:11;0.70;;;0.65;;
253;SDS011;590;48.772;8.846;2023-04-25T10:13:42;1.17;;;0.50;;
253;SDS011;590;48.772;8.846;2023-04-25T10:16:11;0.80;;;0.70;;
253;SDS011;590;48.772;8.846;2023-04-25T10:18:40;0.80;;;0.70;;
253;SDS011;590;48.772;8.846;2023-04-25T10:21:09;0.60;;;0.50;;
253;SDS011;590;48.772;8.846;2023-04-25T10:23:39;0.75;;;0.75;;
253;SDS011;590;48.772;8.846;2023-04-25T10:26:07;0.50;;;0.40;;
253;SDS011;590;48.772;8.846;2023-04-25T10:31:25;0.93;;;0.90;;
253;SDS011;590;48.772;8.846;2023-04-25T10:33:53;0.50;;;0.40;;
253;SDS011;590;48.772;8.846;2023-04-25T10:36:22;0.80;;;0.75;;
253;SDS011;590;48.772;8.846;2023-04-25T10:38:53;1.20;;;1.10;;
253;SDS011;590;48.772;8.846;2023-04-25T10:41:21;0.57;;;0.50;;
253;SDS011;590;48.772;8.846;2023-04-25T10:43:50;0.80;;;0.70;;
253;SDS011;590;48.772;8.846;2023-04-25T10:46:28;0.63;;;0.60;;
253;SDS011;590;48.772;8.846;2023-04-25T10:48:57;0.77;;;0.70;;
253;SDS011;590;48.772;8.846;2023-04-25T10:51:28;1.00;;;0.90;;
253;SDS011;590;48.772;8.846;2023-04-25T10:54:16;1.50;;;1.30;;
253;SDS011;590;48.772;8.846;2023-04-25T10:56:48;2.00;;;1.90;;
253;SDS011;590;48.772;8.846;2023-04-25T10:59:18;2.20;;;2.00;;
253;SDS011;590;48.772;8.846;2023-04-25T11:01:48;2.08;;;1.92;;
253;SDS011;590;48.772;8.846;2023-04-25T11:04:19;2.25;;;2.05;;
253;SDS011;590;48.772;8.846;2023-04-25T11:06:58;2.72;;;2.53;;
253;SDS011;590;48.772;8.846;2023-04-25T11:09:34;3.20;;;3.00;;
253;SDS011;590;48.772;8.846;2023-04-25T11:12:02;2.95;;;2.75;;
253;SDS011;590;48.772;8.846;2023-04-25T11:14:31;3.40;;;3.20;;
253;SDS011;590;48.772;8.846;2023-04-25T11:16:59;4.88;;;4.57;;
253;SDS011;590;48.772;8.846;2023-04-25T11:19:28;3.78;;;3.58;;
253;SDS011;590;48.772;8.846;2023-04-25T11:21:58;3.67;;;3.47;;
253;SDS011;590;48.772;8.846;2023-04-25T11:24:28;4.65;;;4.35;;
253;SDS011;590;48.772;8.846;2023-04-25T11:26:56;5.40;;;5.10;;
253;SDS011;590;48.772;8.846;2023-04-25T11:29:26;5.20;;;4.90;;
253;SDS011;590;48.772;8.846;2023-04-25T11:31:54;5.33;;;5.03;;
253;SDS011;590;48.772;8.846;2023-04-25T11:34:24;5.10;;;4.40;;
253;SDS011;590;48.772;8.846;2023-04-25T11:36:52;5.07;;;4.77;;
253;SDS011;590;48.772;8.846;2023-04-25T11:39:23;5.30;;;5.00;;
253;SDS011;590;48.772;8.846;2023-04-25T11:41:52;4.50;;;4.20;;
253;SDS011;590;48.772;8.846;2023-04-25T11:44:21;4.30;;;4.00;;
253;SDS011;590;48.772;8.846;2023-04-25T11:46:49;4.73;;;4.43;;
253;SDS011;590;48.772;8.846;2023-04-25T11:49:17;5.00;;;4.70;;
253;SDS011;590;48.772;8.846;2023-04-25T11:51:46;4.57;;;4.27;;
253;SDS011;590;48.772;8.846;2023-04-25T11:54:15;3.43;;;3.23;;
253;SDS011;590;48.772;8.846;2023-04-25T11:56:44;4.43;;;4.13;;
253;SDS011;590;48.772;8.846;2023-04-25T11:59:13;3.47;;;3.27;;
253;SDS011;590;48.772;8.846;2023-04-25T12:01:47;3.67;;;3.47;;
253;SDS011;590;48.772;8.846;2023-04-25T12:04:17;2.93;;;2.73;;
253;SDS011;590;48.772;8.846;2023-04-25T12:06:47;3.03;;;2.83;;
253;SDS011;590;48.772;8.846;2023-04-25T12:09:17;3.10;;;2.90;;
253;SDS011;590;48.772;8.846;2023-04-25T12:11:52;3.00;;;2.80;;
253;SDS011;590;48.772;8.846;2023-04-25T12:14:21;3.27;;;3.07;;
253;SDS011;590;48.772;8.846;2023-04-25T12:16:51;2.63;;;2.43;;
253;SDS011;590;48.772;8.846;2023-04-25T12:19:19;3.10;;;3.00;;
253;SDS011;590;48.772;8.846;2023-04-25T12:21:48;3.20;;;3.00;;
253;SDS011;590;48.772;8.846;2023-04-25T12:24:25;2.43;;;2.27;;
253;SDS011;590;48.772;8.846;2023-04-25T12:26:59;3.03;;;2.83;;
253;SDS011;590;48.772;8.846;2023-04-25T12:29:30;3.20;;;3.00;;
253;SDS011;590;48.772;8.846;2023-04-25T12:32:13;2.83;;;2.63;;
253;SDS011;590;48.772;8.846;2023-04-25T12:34:41;3.23;;;3.03;;
253;SDS011;590;48.772;8.846;2023-04-25T12:37:09;3.20;;;3.00;;
253;SDS011;590;48.772;8.846;2023-04-25T12:39:37;2.40;;;2.20;;
253;SDS011;590;48.772;8.846;2023-04-25T12:42:07;3.17;;;2.97;;
253;SDS011;590;48.772;8.846;2023-04-25T12:44:50;3.03;;;2.83;;
253;SDS011;590;48.772;8.846;2023-04-25T12:47:18;8.87;;;7.53;;
253;SDS011;590;48.772;8.846;2023-04-25T12:49:46;5.93;;;5.63;;
253;SDS011;590;48.772;8.846;2023-04-25T12:52:15;13.77;;;12.77;;
253;SDS011;590;48.772;8.846;2023-04-25T12:54:42;5.40;;;5.07;;
253;SDS011;590;48.772;8.846;2023-04-25T12:57:12;4.60;;;4.30;;
253;SDS011;590;48.772;8.846;2023-04-25T12:59:40;14.13;;;13.40;;
253;SDS011;590;48.772;8.846;2023-04-25T13:02:08;12.87;;;10.80;;
253;SDS011;590;48.772;8.846;2023-04-25T13:04:36;9.17;;;8.67;;
253;SDS011;590;48.772;8.846;2023-04-25T13:07:04;6.57;;;6.20;;
253;SDS011;590;48.772;8.846;2023-04-25T13:09:32;6.77;;;6.37;;
253;SDS011;590;48.772;8.846;2023-04-25T13:12:00;5.13;;;4.83;;
253;SDS011;590;48.772;8.846;2023-04-25T13:14:29;6.77;;;6.37;;
253;SDS011;590;48.772;8.846;2023-04-25T13:16:57;29.07;;;15.07;;
253;SDS011;590;48.772;8.846;2023-04-25T13:19:25;10.80;;;6.70;;
253;SDS011;590;48.772;8.846;2023-04-25T13:21:53;8.50;;;7.30;;
253;SDS011;590;48.772;8.846;2023-04-25T13:24:21;6.53;;;6.17;;
253;SDS011;590;48.772;8.846;2023-04-25T13:26:49;5.23;;;4.93;;
253;SDS011;590;48.772;8.846;2023-04-25T13:29:17;4.73;;;4.43;;
253;SDS011;590;48.772;8.846;2023-04-25T13:31:46;5.03;;;4.47;;
253;SDS011;590;48.772;8.846;2023-04-25T13:34:14;4.70;;;4.40;;
253;SDS011;590;48.772;8.846;2023-04-25T13:36:42;4.07;;;3.87;;
253;SDS011;590;48.772;8.846;2023-04-25T13:39:11;4.57;;;4.27;;
253;SDS011;590;48.772;8.846;2023-04-25T13:41:39;4.90;;;4.63;;
253;SDS011;590;48.772;8.846;2023-04-25T13:44:07;4.73;;;4.43;;
253;SDS011;590;48.772;8.846;2023-04-25T13:46:35;5.87;;;5.20;;
253;SDS011;590;48.772;8.846;2023-04-25T13:49:08;4.60;;;4.30;;
253;SDS011;590;48.772;8.846;2023-04-25T13:51:38;5.40;;;5.10;;
253;SDS011;590;48.772;8.846;2023-04-25T13:54:07;4.37;;;4.07;;
253;SDS011;590;48.772;8.846;2023-04-25T13:56:35;4.73;;;4.43;;
253;SDS011;590;48.772;8.846;2023-04-25T13:59:02;4.00;;;3.80;;
253;SDS011;590;48.772;8.846;2023-04-25T14:01:30;4.50;;;4.20;;
253;SDS011;590;48.772;8.846;2023-04-25T14:04:00;3.83;;;3.63;;
253;SDS011;590;48.772;8.846;2023-04-25T14:06:32;4.10;;;3.90;;
253;SDS011;590;48.772;8.846;2023-04-25T14:09:00;3.93;;;3.73;;
253;SDS011;590;48.772;8.846;2023-04-25T14:11:29;3.40;;;3.20;;
253;SDS011;590;48.772;8.846;2023-04-25T14:13:57;3.40;;;3.20;;
253;SDS011;590;48.772;8.846;2023-04-25T14:16:25;2.30;;;2.10;;
253;SDS011;590;48.772;8.846;2023-04-25T14:18:53;2.07;;;1.93;;
253;SDS011;590;48.772;8.846;2023-04-25T14:21:21;2.40;;;2.20;;
253;SDS011;590;48.772;8.846;2023-04-25T14:23:51;1.90;;;1.80;;
253;SDS011;590;48.772;8.846;2023-04-25T14:26:19;3.30;;;3.10;;
253;SDS011;590;48.772;8.846;2023-04-25T14:28:47;2.40;;;2.20;;
253;SDS011;590;48.772;8.846;2023-04-25T14:31:15;2.00;;;1.90;;
253;SDS011;590;48.772;8.846;2023-04-25T14:33:43;2.20;;;2.00;;
253;SDS011;590;48.772;8.846;2023-04-25T14:36:11;2.30;;;2.10;;
253;SDS011;590;48.772;8.846;2023-04-25T14:38:40;2.07;;;1.93;;
253;SDS011;590;48.772;8.846;2023-04-25T14:41:10;2.40;;;2.20;;
253;SDS011;590;48.772;8.846;2023-04-25T14:43:38;2.33;;;2.20;;
253;SDS011;590;48.772;8.846;2023-04-25T14:46:08;2.40;;;2.20;;
253;SDS011;590;48.772;8.846;2023-04-25T14:48:37;1.97;;;1.87;;
253;SDS011;590;48.772;8.846;2023-04-25T14:51:05;2.37;;;2.17;;
253;SDS011;590;48.772;8.846;2023-04-25T14:53:33;2.00;;;1.90;;
253;SDS011;590;48.772;8.846;2023-04-25T14:56:04;2.03;;;1.90;;
253;SDS011;590;48.772;8.846;2023-04-25T14:58:34;2.23;;;2.07;;
253;SDS011;590;48.772;8.846;2023-04-25T15:01:03;2.73;;;2.53;;
253;SDS011;590;48.772;8.846;2023-04-25T15:03:33;2.43;;;2.23;;
253;SDS011;590;48.772;8.846;2023-04-25T15:06:01;2.50;;;2.30;;
253;SDS011;590;48.772;8.846;2023-04-25T15:08:29;2.70;;;2.50;;
253;SDS011;590;48.772;8.846;2023-04-25T15:10:58;3.00;;;2.80;;
253;SDS011;590;48.772;8.846;2023-04-25T15:13:28;2.53;;;2.33;;
253;SDS011;590;48.772;8.846;2023-04-25T15:15:57;3.00;;;2.80;;
253;SDS011;590;48.772;8.846;2023-04-25T15:18:26;2.40;;;2.20;;
253;SDS011;590;48.772;8.846;2023-04-25T15:20:54;3.10;;;2.80;;
253;SDS011;590;48.772;8.846;2023-04-25T15:23:22;2.63;;;2.43;;
253;SDS011;590;48.772;8.846;2023-04-25T15:25:51;3.40;;;3.20;;
253;SDS011;590;48.772;8.846;2023-04-25T15:28:19;3.77;;;3.60;;
253;SDS011;590;48.772;8.846;2023-04-25T15:30:48;4.50;;;4.20;;
253;SDS011;590;48.772;8.846;2023-04-25T15:33:18;6.80;;;6.40;;
253;SDS011;590;48.772;8.846;2023-04-25T15:35:46;7.03;;;6.63;;
253;SDS011;590;48.772;8.846;2023-04-25T15:38:14;9.50;;;9.00;;
253;SDS011;590;48.772;8.846;2023-04-25T15:40:42;7.40;;;7.00;;
253;SDS011;590;48.772;8.846;2023-04-25T15:43:10;9.70;;;9.20;;
253;SDS011;590;48.772;8.846;2023-04-25T15:45:41;5.40;;;5.10;;
253;SDS011;590;48.772;8.846;2023-04-25T15:48:11;4.43;;;4.13;;
253;SDS011;590;48.772;8.846;2023-04-25T15:50:41;4.97;;;4.67;;
253;SDS011;590;48.772;8.846;2023-04-25T15:53:09;4.33;;;4.03;;
253;SDS011;590;48.772;8.846;2023-04-25T15:55:37;4.60;;;4.30;;
253;SDS011;590;48.772;8.846;2023-04-25T15:58:06;3.97;;;3.77;;